Time;durP1;ratioP1;P1;durP2;ratioP2;P2;SDS_P1;SDS_P2;PMS_P1;PMS_P2;Temp;Humidity;BMP_temperature;BMP_pressure;BME280_temperature;BME280_humidity;BME280_pressure;Samples;Min_cycle;Max_cycle;Signal;HPM_P1;HPM_P2
2021/12/14 00:00:49;;;;;;;26.02;19.33;;;;;;;10.98;63.40;102641.84;5128658;28;20446;-43
2021/12/14 00:03:26;;;;;;;26.80;19.45;;;;;;;10.97;63.33;102646.31;5121311;28;20475;-45
2021/12/14 00:05:59;;;;;;;26.08;19.15;;;;;;;10.99;63.40;102657.59;5127760;28;20475;-43
2021/12/14 00:08:37;;;;;;;25.48;18.67;;;;;;;11.00;63.44;102661.94;5127528;28;20430;-43
2021/12/14 00:11:29;;;;;;;24.02;18.42;;;;;;;11.01;63.38;102671.56;5123335;28;20424;-43
2021/12/14 00:14:24;;;;;;;26.83;19.20;;;;;;;11.04;63.34;102666.06;5126432;28;20781;-44
2021/12/14 00:16:59;;;;;;;26.85;19.75;;;;;;;11.06;63.22;102656.22;5126272;28;20418;-43
2021/12/14 00:19:31;;;;;;;27.73;20.00;;;;;;;11.05;63.21;102662.44;5128446;28;20819;-43
2021/12/14 00:22:18;;;;;;;27.92;20.05;;;;;;;11.03;63.35;102669.66;5127689;28;20440;-48
2021/12/14 00:24:51;;;;;;;27.85;19.23;;;;;;;11.02;63.38;102654.75;5124871;28;20432;-43
2021/12/14 00:27:25;;;;;;;27.45;20.50;;;;;;;11.03;63.27;102658.25;5125919;28;20793;-45
2021/12/14 00:30:01;;;;;;;25.88;19.20;;;;;;;11.05;63.43;102665.09;5127540;28;20435;-45
2021/12/14 00:32:37;;;;;;;28.63;19.75;;;;;;;11.05;63.38;102662.44;5129779;28;20441;-43
2021/12/14 00:35:13;;;;;;;27.77;19.45;;;;;;;11.06;63.31;102653.59;5129206;28;20865;-44
2021/12/14 00:37:49;;;;;;;31.83;19.65;;;;;;;11.04;63.37;102649.34;5136843;28;20434;-45
2021/12/14 00:40:28;;;;;;;28.80;19.75;;;;;;;11.02;63.33;102660.03;5124559;28;20404;-42
2021/12/14 00:43:02;;;;;;;26.83;20.55;;;;;;;11.00;63.45;102643.44;5128440;28;21031;-43
2021/12/14 00:45:39;;;;;;;31.05;20.92;;;;;;;10.96;63.55;102641.97;5127792;28;20534;-44
2021/12/14 00:48:14;;;;;;;25.45;19.77;;;;;;;10.92;63.79;102629.91;5124667;28;20439;-42
2021/12/14 00:50:54;;;;;;;29.90;21.10;;;;;;;10.85;63.74;102612.81;5124586;28;20769;-47
2021/12/14 00:53:28;;;;;;;28.58;20.77;;;;;;;10.94;63.76;102637.75;5126240;28;20511;-43
2021/12/14 00:56:07;;;;;;;26.45;19.45;;;;;;;10.91;63.69;102636.16;5124612;28;20784;-42
2021/12/14 00:58:39;;;;;;;29.90;20.90;;;;;;;10.97;63.66;102635.72;5128055;28;20428;-45
2021/12/14 01:01:16;;;;;;;29.23;21.20;;;;;;;10.97;63.65;102626.97;5124725;28;20452;-43
2021/12/14 01:03:53;;;;;;;26.10;20.60;;;;;;;10.95;63.66;102624.41;5124744;28;20505;-43
2021/12/14 01:06:30;;;;;;;29.60;21.07;;;;;;;10.91;63.72;102612.38;5127127;28;20512;-44
2021/12/14 01:09:06;;;;;;;30.88;22.45;;;;;;;10.91;63.73;102614.19;5128929;28;20416;-43
2021/12/14 01:11:44;;;;;;;28.27;21.77;;;;;;;10.79;63.83;102605.31;5125134;28;20459;-49
2021/12/14 01:14:24;;;;;;;28.83;22.02;;;;;;;10.85;63.91;102597.78;5124505;28;20998;-44
2021/12/14 01:17:10;;;;;;;30.08;21.95;;;;;;;10.75;64.13;102590.63;5127152;28;20434;-42
2021/12/14 01:19:49;;;;;;;31.38;22.55;;;;;;;10.82;63.91;102607.72;5123510;28;20534;-42
2021/12/14 01:22:40;;;;;;;30.10;22.15;;;;;;;10.82;64.10;102598.00;5123498;28;20789;-44
2021/12/14 01:25:20;;;;;;;30.02;21.85;;;;;;;10.79;64.13;102618.53;5125914;28;20499;-43
2021/12/14 01:27:57;;;;;;;29.75;21.90;;;;;;;10.81;64.10;102608.69;5124313;28;20424;-43
2021/12/14 01:30:36;;;;;;;32.03;22.85;;;;;;;10.82;64.10;102624.44;5127588;28;20511;-44
2021/12/14 01:33:13;;;;;;;30.85;22.08;;;;;;;10.85;64.04;102626.03;5130445;28;20454;-45
2021/12/14 01:35:49;;;;;;;32.90;22.35;;;;;;;10.85;64.10;102618.94;5122471;28;20742;-44
2021/12/14 01:38:34;;;;;;;32.65;22.35;;;;;;;10.83;64.13;102614.69;5123658;28;20436;-44
2021/12/14 01:41:12;;;;;;;28.75;21.25;;;;;;;10.84;64.18;102622.53;5126896;28;20417;-42
2021/12/14 01:43:55;;;;;;;28.35;22.23;;;;;;;10.86;64.14;102614.47;5125426;28;20901;-44
2021/12/14 01:46:34;;;;;;;27.50;20.77;;;;;;;10.87;63.98;102610.91;5126103;28;20428;-43
2021/12/14 01:49:10;;;;;;;30.42;21.90;;;;;;;10.84;64.16;102611.13;5128785;28;20419;-43
2021/12/14 01:51:46;;;;;;;28.95;21.85;;;;;;;10.87;64.22;102625.91;5125840;28;20436;-43
2021/12/14 01:54:26;;;;;;;30.65;22.27;;;;;;;10.86;64.21;102630.34;5123851;28;20450;-47
2021/12/14 01:56:58;;;;;;;30.33;23.50;;;;;;;10.86;64.14;102625.06;5126231;28;20840;-43
2021/12/14 01:59:36;;;;;;;31.88;22.48;;;;;;;10.82;64.10;102620.94;5124011;28;20423;-43
2021/12/14 02:02:22;;;;;;;29.17;22.45;;;;;;;10.88;64.20;102633.72;5126329;28;20427;-45
2021/12/14 02:04:55;;;;;;;30.20;23.13;;;;;;;10.89;64.13;102626.66;5125511;28;20424;-44
2021/12/14 02:07:29;;;;;;;30.85;22.85;;;;;;;10.92;64.18;102627.25;5124819;28;20432;-44
2021/12/14 02:10:07;;;;;;;28.70;22.35;;;;;;;10.84;64.13;102616.41;5125874;28;20834;-44
2021/12/14 02:12:44;;;;;;;27.80;21.50;;;;;;;10.86;64.08;102617.13;5123677;28;20408;-43
2021/12/14 02:15:27;;;;;;;27.95;21.45;;;;;;;10.86;64.26;102619.78;5123173;28;20473;-41
2021/12/14 02:18:06;;;;;;;29.13;21.85;;;;;;;10.84;64.22;102621.69;5124608;28;20952;-43
2021/12/14 02:20:39;;;;;;;29.83;22.27;;;;;;;10.82;64.32;102628.88;5127224;28;20563;-43
2021/12/14 02:23:13;;;;;;;28.98;21.55;;;;;;;10.82;64.30;102621.78;5124633;28;20412;-43
2021/12/14 02:25:46;;;;;;;26.17;20.67;;;;;;;10.82;64.20;102618.31;5122945;28;20408;-49
2021/12/14 02:28:20;;;;;;;31.83;21.73;;;;;;;10.84;64.22;102611.97;5125644;28;20548;-42
2021/12/14 02:30:56;;;;;;;28.95;21.00;;;;;;;10.68;64.28;102584.91;5132114;28;20412;-47
2021/12/14 02:33:33;;;;;;;26.67;20.35;;;;;;;10.85;64.50;102607.50;5127084;28;20520;-43
2021/12/14 02:36:10;;;;;;;29.48;22.40;;;;;;;10.88;64.24;102599.38;5125397;28;22200;-44
2021/12/14 02:38:48;;;;;;;28.33;22.10;;;;;;;10.87;63.96;102597.69;5126277;28;20427;-43
2021/12/14 02:41:20;;;;;;;28.33;21.50;;;;;;;10.85;63.98;102592.50;5125031;28;20412;-42
2021/12/14 02:43:56;;;;;;;30.77;21.80;;;;;;;10.78;64.20;102569.28;5128404;28;20436;-43
2021/12/14 02:46:35;;;;;;;25.70;21.27;;;;;;;10.83;64.17;102575.06;5127985;28;20436;-42
2021/12/14 02:49:12;;;;;;;28.75;22.77;;;;;;;10.80;64.30;102573.47;5130004;28;20423;-43
2021/12/14 02:51:48;;;;;;;29.63;23.07;;;;;;;10.76;64.34;102581.72;5129799;28;20439;-44
2021/12/14 02:54:25;;;;;;;31.20;23.55;;;;;;;10.73;64.47;102589.88;5126587;28;20412;-45
2021/12/14 02:57:02;;;;;;;29.45;23.70;;;;;;;10.72;64.44;102585.56;5128193;28;20424;-45
2021/12/14 02:59:38;;;;;;;28.53;23.17;;;;;;;10.66;64.32;102580.69;5127142;28;20987;-45
2021/12/14 03:02:16;;;;;;;29.83;23.38;;;;;;;10.74;64.27;102596.84;5128694;28;20416;-46
2021/12/14 03:04:54;;;;;;;30.00;23.27;;;;;;;10.75;64.28;102596.75;5127034;28;20412;-43
2021/12/14 03:07:32;;;;;;;30.58;23.05;;;;;;;10.74;64.36;102610.06;5127595;28;20428;-44
2021/12/14 03:10:32;;;;;;;29.15;23.00;;;;;;;10.76;64.21;102603.72;5129206;28;20419;-43
2021/12/14 03:13:11;;;;;;;31.63;24.35;;;;;;;10.78;64.29;102600.97;5096062;28;20496;-47
2021/12/14 03:15:51;;;;;;;29.08;23.15;;;;;;;10.78;64.27;102606.25;5121504;28;20435;-56
2021/12/14 03:18:30;;;;;;;33.83;23.77;;;;;;;10.72;64.36;102596.13;5124025;28;20577;-43
2021/12/14 03:21:07;;;;;;;31.15;24.17;;;;;;;10.73;64.49;102608.38;5124830;28;20424;-43
2021/12/14 03:23:47;;;;;;;30.50;25.20;;;;;;;10.73;64.42;102618.94;5122011;28;20547;-42
2021/12/14 03:26:26;;;;;;;31.33;25.20;;;;;;;10.71;64.39;102612.91;5127996;28;20431;-42
2021/12/14 03:29:07;;;;;;;30.25;24.02;;;;;;;10.73;64.26;102613.66;5097724;28;20420;-43
2021/12/14 03:31:42;;;;;;;32.92;25.00;;;;;;;10.76;64.30;102616.09;5124172;28;20420;-45
2021/12/14 03:34:20;;;;;;;33.22;24.75;;;;;;;10.78;64.44;102620.31;5127916;28;20849;-43
2021/12/14 03:36:55;;;;;;;34.67;26.45;;;;;;;10.78;64.37;102619.47;5125050;28;20428;-44
2021/12/14 03:39:31;;;;;;;32.45;25.27;;;;;;;10.68;64.57;102594.63;5126802;28;20419;-42
2021/12/14 03:42:10;;;;;;;31.80;25.52;;;;;;;10.74;64.52;102605.59;5129100;28;20447;-44
2021/12/14 03:44:47;;;;;;;34.47;27.02;;;;;;;10.74;64.46;102600.31;5128830;28;20408;-41
2021/12/14 03:47:23;;;;;;;34.92;26.35;;;;;;;10.74;64.55;102602.13;5126104;28;20428;-42
2021/12/14 03:50:00;;;;;;;35.22;25.83;;;;;;;10.72;64.47;102596.97;5128029;28;20426;-42
2021/12/14 03:52:36;;;;;;;36.20;26.33;;;;;;;10.67;64.48;102587.66;5129490;28;20776;-42
2021/12/14 03:55:16;;;;;;;32.63;26.13;;;;;;;10.73;64.45;102600.44;5127140;28;20838;-43
2021/12/14 03:57:50;;;;;;;35.33;27.48;;;;;;;10.72;64.55;102601.41;5126408;28;20446;-43
2021/12/14 04:00:28;;;;;;;35.53;27.60;;;;;;;10.72;64.53;102596.13;5128106;28;20498;-44
2021/12/14 04:03:06;;;;;;;34.50;26.55;;;;;;;10.72;64.54;102601.41;5129017;28;20426;-43
2021/12/14 04:05:41;;;;;;;35.33;27.98;;;;;;;10.73;64.44;102597.81;5127498;28;20447;-45
2021/12/14 04:08:15;;;;;;;34.67;26.38;;;;;;;10.73;64.49;102597.81;5128490;28;20424;-44
2021/12/14 04:10:51;;;;;;;36.37;26.73;;;;;;;10.68;64.62;102599.91;5124167;28;20409;-44
2021/12/14 04:13:29;;;;;;;35.25;27.35;;;;;;;10.61;64.80;102594.22;5128330;28;20431;-43
2021/12/14 04:16:02;;;;;;;37.00;28.02;;;;;;;10.70;64.57;102608.59;5126738;28;20426;-44
2021/12/14 04:18:35;;;;;;;37.47;28.70;;;;;;;10.69;64.61;102601.63;5126716;28;20880;-44
2021/12/14 04:21:08;;;;;;;37.78;29.15;;;;;;;10.67;64.62;102601.72;5128968;28;20847;-43
2021/12/14 04:23:44;;;;;;;39.38;30.08;;;;;;;10.66;64.64;102591.28;5130006;28;20418;-44
2021/12/14 04:26:18;;;;;;;38.95;29.23;;;;;;;10.65;64.64;102590.41;5123774;28;20503;-47
2021/12/14 04:28:59;;;;;;;35.15;28.92;;;;;;;10.62;64.69;102590.63;5126623;28;20772;-44
2021/12/14 04:31:36;;;;;;;38.30;30.13;;;;;;;10.61;64.79;102583.66;5125936;28;20714;-45
2021/12/14 04:34:08;;;;;;;35.08;27.85;;;;;;;10.59;64.79;102591.69;5127825;28;20407;-44
2021/12/14 04:36:43;;;;;;;35.63;28.05;;;;;;;10.56;64.79;102591.03;5125143;28;20408;-43
2021/12/14 04:39:35;;;;;;;36.83;28.10;;;;;;;10.55;64.67;102600.78;5126730;28;21010;-45
2021/12/14 04:53:55;;;;;;;38.33;29.95;;;;;;;10.63;64.80;102581.75;5128136;28;20963;-45
2021/12/14 04:56:32;;;;;;;39.30;29.15;;;;;;;10.70;64.66;102592.75;5130096;28;20439;-43
2021/12/14 04:59:09;;;;;;;37.63;29.20;;;;;;;10.69;64.68;102583.13;5129069;28;20920;-43
2021/12/14 05:01:46;;;;;;;41.55;29.48;;;;;;;10.70;64.80;102592.75;5130640;28;20943;-43
2021/12/14 05:04:23;;;;;;;38.70;30.20;;;;;;;10.74;64.74;102591.56;5129517;28;20410;-45
2021/12/14 05:07:04;;;;;;;39.95;29.75;;;;;;;10.73;64.78;102580.16;5128047;28;20440;-44
2021/12/14 05:09:37;;;;;;;40.47;30.48;;;;;;;10.70;64.76;102588.28;5131464;28;20412;-42
2021/12/14 05:12:13;;;;;;;42.53;29.38;;;;;;;10.68;64.92;102581.41;5131349;28;20418;-44
2021/12/14 05:14:48;;;;;;;41.75;29.00;;;;;;;10.67;65.00;102582.38;5130723;28;20446;-45
2021/12/14 05:17:28;;;;;;;37.85;29.90;;;;;;;10.68;65.01;102600.75;5127423;28;20926;-43
2021/12/14 05:20:02;;;;;;;38.55;30.42;;;;;;;10.71;64.97;102592.63;5121559;28;20773;-43
2021/12/14 05:22:37;;;;;;;39.45;29.17;;;;;;;10.74;64.92;102591.56;5130177;28;20777;-43
2021/12/14 05:25:14;;;;;;;38.17;28.80;;;;;;;10.73;64.90;102587.22;5130336;28;20772;-43
2021/12/14 05:27:50;;;;;;;37.83;29.48;;;;;;;10.74;65.00;102589.75;5129551;28;20440;-40
2021/12/14 05:30:27;;;;;;;39.15;29.55;;;;;;;10.78;64.88;102593.06;5127852;28;20405;-43
2021/12/14 05:33:06;;;;;;;41.85;29.60;;;;;;;10.80;64.80;102596.41;5129430;28;20424;-44
2021/12/14 05:35:40;;;;;;;41.15;30.25;;;;;;;10.82;64.82;102595.34;5129799;28;20392;-44
2021/12/14 05:38:16;;;;;;;42.35;30.65;;;;;;;10.83;64.77;102598.84;5127749;28;20885;-43
2021/12/14 05:41:08;;;;;;;38.63;30.55;;;;;;;10.77;64.76;102604.56;5127596;28;20419;-43
2021/12/14 05:43:40;;;;;;;42.65;31.20;;;;;;;10.79;64.82;102594.72;5129357;28;20432;-42
2021/12/14 05:46:12;;;;;;;40.30;30.42;;;;;;;10.80;64.85;102599.06;5128547;28;20427;-42
2021/12/14 05:48:46;;;;;;;43.08;30.67;;;;;;;10.73;64.99;102581.94;5129687;28;20420;-43
2021/12/14 05:51:18;;;;;;;41.67;29.00;;;;;;;10.77;64.96;102594.00;5126656;28;20515;-42
2021/12/14 05:53:51;;;;;;;45.70;31.40;;;;;;;10.74;65.01;102588.91;5131338;28;20443;-43
2021/12/14 05:56:25;;;;;;;45.97;30.73;;;;;;;10.76;65.10;102594.94;5130063;28;20888;-43
2021/12/14 05:59:00;;;;;;;43.22;29.52;;;;;;;10.78;65.03;102601.81;5133774;28;20503;-43
2021/12/14 06:01:34;;;;;;;46.45;28.95;;;;;;;10.84;65.07;102613.75;5134277;28;20417;-42
2021/12/14 06:04:10;;;;;;;45.90;28.83;;;;;;;10.76;65.08;102602.88;5129190;28;20434;-43
2021/12/14 06:06:46;;;;;;;45.50;27.60;;;;;;;10.82;65.14;102618.31;5126922;28;20765;-43
2021/12/14 06:09:24;;;;;;;40.05;28.48;;;;;;;10.82;64.99;102618.31;5127099;28;20761;-44
2021/12/14 06:12:05;;;;;;;40.97;28.50;;;;;;;10.83;65.45;102623.47;5128528;28;20517;-43
2021/12/14 06:14:43;;;;;;;39.53;28.88;;;;;;;10.84;65.07;102617.25;5135524;28;20450;-43
2021/12/14 06:17:15;;;;;;;35.80;26.30;;;;;;;10.86;65.10;102630.34;5133843;28;20809;-42
2021/12/14 06:19:55;;;;;;;40.75;27.35;;;;;;;10.85;65.07;102620.72;5124965;28;20412;-43
2021/12/14 06:22:28;;;;;;;42.00;27.65;;;;;;;10.85;65.06;102620.72;5128534;28;20412;-43
2021/12/14 06:25:04;;;;;;;39.60;27.63;;;;;;;10.84;65.16;102616.41;5131670;28;20971;-47
2021/12/14 06:27:38;;;;;;;41.70;27.83;;;;;;;10.83;65.13;102612.06;5126956;28;20430;-43
2021/12/14 06:30:15;;;;;;;41.50;27.27;;;;;;;10.83;65.21;102615.53;5127608;28;20936;-42
2021/12/14 06:32:50;;;;;;;39.40;27.40;;;;;;;10.87;65.13;102615.31;5126636;28;21148;-46
2021/12/14 06:35:29;;;;;;;40.72;28.17;;;;;;;10.88;65.11;102611.75;5127962;28;20430;-47
2021/12/14 06:38:28;;;;;;;39.20;27.98;;;;;;;10.76;65.16;102600.22;5083006;29;20428;-44
2021/12/14 06:41:09;;;;;;;37.72;26.27;;;;;;;10.88;65.12;102617.88;5083703;29;20424;-45
2021/12/14 06:43:52;;;;;;;36.22;27.08;;;;;;;10.90;65.20;102626.56;5083033;29;20439;-44
2021/12/14 06:46:27;;;;;;;41.88;28.15;;;;;;;10.88;65.29;102633.72;5086614;28;20419;-41
2021/12/14 06:49:06;;;;;;;38.08;26.70;;;;;;;10.94;65.06;102633.31;5088881;29;20433;-44
2021/12/14 06:51:45;;;;;;;40.70;25.70;;;;;;;10.92;65.12;102635.19;5085185;29;20506;-41
2021/12/14 06:54:21;;;;;;;41.95;27.35;;;;;;;10.94;65.14;102643.03;5085011;28;20420;-43
2021/12/14 06:56:58;;;;;;;42.60;26.17;;;;;;;10.94;65.18;102643.88;5085345;29;20439;-45
2021/12/14 06:59:31;;;;;;;44.77;29.20;;;;;;;10.93;65.18;102647.47;5080109;29;20431;-48
2021/12/14 07:02:08;;;;;;;44.45;26.75;;;;;;;10.92;65.08;102637.84;5077111;28;20439;-43
2021/12/14 07:04:48;;;;;;;47.60;27.10;;;;;;;10.95;65.25;102650.84;5083761;28;20438;-46
2021/12/14 07:07:27;;;;;;;44.55;26.33;;;;;;;10.70;65.04;102603.31;5079286;29;20764;-47
2021/12/14 07:10:02;;;;;;;41.88;26.70;;;;;;;10.98;65.13;102645.34;5085411;28;20457;-43
2021/12/14 07:12:38;;;;;;;41.70;26.17;;;;;;;10.96;65.22;102638.47;5087286;28;20435;-44
2021/12/14 07:15:19;;;;;;;50.40;27.37;;;;;;;10.92;65.44;102639.66;5083591;29;21004;-45
2021/12/14 07:18:01;;;;;;;44.42;26.77;;;;;;;10.90;65.51;102646.81;5080030;28;20490;-45
2021/12/14 07:20:39;;;;;;;49.80;27.38;;;;;;;10.93;65.47;102649.25;5081668;28;21037;-44
2021/12/14 07:23:25;;;;;;;47.92;28.13;;;;;;;10.93;65.26;102652.78;5083295;28;20426;-43
2021/12/14 07:26:01;;;;;;;45.03;27.13;;;;;;;10.91;65.43;102646.72;5088826;28;20427;-44
2021/12/14 07:28:38;;;;;;;51.53;29.92;;;;;;;10.91;65.40;102649.38;5090178;28;20546;-46
2021/12/14 07:31:16;;;;;;;46.55;27.65;;;;;;;10.88;65.80;102649.59;5085437;29;20515;-44
2021/12/14 07:33:52;;;;;;;52.30;29.60;;;;;;;10.92;65.40;102656.34;5085048;29;20428;-43
2021/12/14 07:36:28;;;;;;;49.78;29.73;;;;;;;10.93;65.33;102646.63;5104036;28;20430;-46
2021/12/14 07:39:06;;;;;;;59.92;30.85;;;;;;;10.95;65.36;102663.22;5129850;28;20432;-43
2021/12/14 07:41:44;;;;;;;60.05;32.13;;;;;;;10.95;65.40;102660.56;5129228;28;20452;-46
2021/12/14 07:44:21;;;;;;;59.00;31.35;;;;;;;10.92;65.40;102664.28;5125989;28;20428;-41
2021/12/14 07:46:57;;;;;;;64.30;33.25;;;;;;;10.92;65.44;102666.91;5130791;28;20420;-42
2021/12/14 07:49:34;;;;;;;63.33;32.45;;;;;;;10.92;65.49;102671.38;5127775;28;20431;-43
2021/12/14 07:52:15;;;;;;;72.15;34.38;;;;;;;10.78;65.53;102661.78;5123657;28;20434;-44
2021/12/14 07:54:53;;;;;;;58.10;31.58;;;;;;;10.89;65.52;102684.78;5122106;28;20416;-47
2021/12/14 07:57:29;;;;;;;60.72;32.83;;;;;;;10.85;65.72;102705.31;5129906;28;20439;-45
2021/12/14 08:00:10;;;;;;;66.05;35.33;;;;;;;10.88;65.60;102685.75;5125572;28;20422;-44
2021/12/14 08:02:46;;;;;;;59.65;34.40;;;;;;;10.84;65.51;102691.25;5123831;28;20901;-45
2021/12/14 08:05:23;;;;;;;66.40;35.63;;;;;;;10.83;65.70;102689.53;5127902;28;20427;-44
2021/12/14 08:07:58;;;;;;;70.95;35.65;;;;;;;10.82;65.90;102692.31;5124631;28;20420;-45
2021/12/14 08:10:38;;;;;;;68.75;35.58;;;;;;;10.80;65.71;102694.19;5130244;28;20516;-43
2021/12/14 08:13:16;;;;;;;70.32;36.25;;;;;;;10.77;65.76;102691.78;5127720;28;20404;-42
2021/12/14 08:15:53;;;;;;;73.22;36.92;;;;;;;10.79;65.96;102692.53;5121745;28;20416;-43
2021/12/14 08:18:28;;;;;;;69.88;34.65;;;;;;;10.81;65.95;102693.28;5125610;28;20827;-48
2021/12/14 08:21:04;;;;;;;65.40;34.67;;;;;;;10.84;65.91;102695.69;5124531;28;20437;-43
2021/12/14 08:23:39;;;;;;;69.20;35.97;;;;;;;10.77;65.98;102689.97;5127920;28;23885;-43
2021/12/14 08:26:17;;;;;;;66.47;35.45;;;;;;;10.87;65.93;102711.34;5122235;28;20420;-45
2021/12/14 08:28:53;;;;;;;71.07;35.80;;;;;;;10.90;65.89;102705.84;5119468;28;20713;-45
2021/12/14 08:31:33;;;;;;;69.57;37.08;;;;;;;10.89;65.92;102704.16;5120885;28;20428;-46
2021/12/14 08:34:09;;;;;;;75.90;36.50;;;;;;;10.89;65.99;102703.31;5121061;28;20435;-44
2021/12/14 08:36:46;;;;;;;69.13;34.15;;;;;;;10.87;65.81;102708.72;5121791;28;20419;-49
2021/12/14 08:39:22;;;;;;;77.57;34.63;;;;;;;10.88;66.19;102720.97;5118815;28;20408;-47
2021/12/14 08:42:12;;;;;;;71.30;34.83;;;;;;;10.87;66.18;102718.41;5122857;28;20432;-44
2021/12/14 08:44:53;;;;;;;73.80;35.00;;;;;;;10.88;66.22;102707.75;5123025;28;20431;-43
2021/12/14 08:47:32;;;;;;;72.05;34.33;;;;;;;10.90;66.18;102708.50;5120916;28;20409;-44
2021/12/14 08:50:11;;;;;;;72.32;34.42;;;;;;;10.91;66.22;102710.19;5122012;28;20435;-46
2021/12/14 08:52:45;;;;;;;70.88;33.67;;;;;;;10.64;66.11;102661.88;5119800;28;21519;-46
2021/12/14 08:55:21;;;;;;;72.07;33.90;;;;;;;10.95;66.28;102709.00;5119587;28;20511;-43
2021/12/14 08:57:56;;;;;;;76.90;33.40;;;;;;;10.97;66.30;102706.28;5122643;28;20415;-44
2021/12/14 09:00:37;;;;;;;68.53;32.67;;;;;;;11.00;66.27;102708.69;5118181;28;20463;-44
2021/12/14 09:03:14;;;;;;;70.30;34.65;;;;;;;10.97;66.37;102698.34;5125486;28;20434;-44
2021/12/14 09:05:50;;;;;;;74.10;35.22;;;;;;;10.97;66.52;102707.09;5121312;28;20428;-47
2021/12/14 09:08:23;;;;;;;84.03;35.13;;;;;;;11.00;66.50;102692.84;5117575;28;20432;-44
2021/12/14 09:10:57;;;;;;;72.72;33.22;;;;;;;10.97;66.53;102711.56;5122316;28;20543;-46
2021/12/14 09:13:32;;;;;;;67.30;33.63;;;;;;;10.97;66.65;102709.75;5123146;28;20428;-43
2021/12/14 09:16:09;;;;;;;69.80;32.88;;;;;;;10.97;66.71;102704.47;5124959;28;20621;-45
2021/12/14 09:18:46;;;;;;;71.78;32.80;;;;;;;10.99;66.83;102709.63;5123130;28;20419;-46
2021/12/14 09:21:24;;;;;;;73.53;32.50;;;;;;;10.97;66.77;102701.81;5117710;28;20915;-44
2021/12/14 09:24:01;;;;;;;71.53;31.58;;;;;;;11.02;66.84;102704.97;5122883;28;20459;-43
2021/12/14 09:26:37;;;;;;;64.25;33.17;;;;;;;11.04;66.88;102703.06;5127686;28;20438;-43
2021/12/14 09:29:15;;;;;;;68.32;31.92;;;;;;;11.05;66.89;102710.03;5121381;28;20471;-42
2021/12/14 09:31:51;;;;;;;62.17;31.37;;;;;;;11.07;66.88;102713.44;5122620;28;20428;-41
2021/12/14 09:34:28;;;;;;;64.07;30.67;;;;;;;11.08;66.88;102707.19;5119839;28;20454;-42
2021/12/14 09:37:07;;;;;;;62.83;31.08;;;;;;;11.00;66.96;102700.78;5118342;28;20433;-44
2021/12/14 09:39:42;;;;;;;59.20;28.13;;;;;;;11.05;67.04;102704.75;5127362;28;20427;-43
2021/12/14 09:42:19;;;;;;;61.40;30.20;;;;;;;11.08;67.16;102704.53;5125761;28;20442;-44
2021/12/14 09:45:00;;;;;;;61.70;29.98;;;;;;;11.11;67.11;102718.50;5125141;28;20432;-43
2021/12/14 09:47:33;;;;;;;56.75;29.52;;;;;;;11.14;67.22;102720.94;5129095;28;20420;-43
2021/12/14 09:50:13;;;;;;;58.40;28.87;;;;;;;11.11;67.11;102706.13;5123851;28;20440;-43
2021/12/14 09:52:47;;;;;;;57.78;29.00;;;;;;;11.20;67.12;102713.41;5124981;28;20551;-43
2021/12/14 09:55:25;;;;;;;54.25;29.23;;;;;;;11.22;67.20;102715.97;5121968;28;20767;-44
2021/12/14 09:58:05;;;;;;;61.05;28.42;;;;;;;11.29;67.05;102704.00;5129274;28;20761;-44
2021/12/14 10:00:45;;;;;;;60.72;28.25;;;;;;;11.31;67.06;102715.31;5126355;28;20845;-44
2021/12/14 10:03:19;;;;;;;57.50;27.50;;;;;;;11.37;66.98;102711.41;5123238;28;20426;-50
2021/12/14 10:05:56;;;;;;;53.17;27.98;;;;;;;11.37;67.24;102708.75;5129688;28;20789;-42
2021/12/14 10:08:47;;;;;;;64.30;27.92;;;;;;;11.38;67.52;102716.56;5123240;28;20422;-47
2021/12/14 10:11:28;;;;;;;53.15;27.33;;;;;;;11.40;67.29;102714.69;5121217;28;20911;-58
2021/12/14 10:14:00;;;;;;;57.35;25.80;;;;;;;11.26;67.25;102685.69;5120925;28;20514;-44
2021/12/14 10:16:34;;;;;;;53.78;25.45;;;;;;;11.46;67.25;102718.69;5121678;28;20419;-44
2021/12/14 10:19:12;;;;;;;56.30;25.52;;;;;;;11.48;67.20;102725.53;5118501;28;20456;-45
2021/12/14 10:21:50;;;;;;;53.55;26.15;;;;;;;11.49;67.28;102719.31;5124203;28;20972;-43
2021/12/14 10:24:23;;;;;;;49.05;25.20;;;;;;;11.49;67.38;102718.47;5120652;28;20434;-44
2021/12/14 10:26:59;;;;;;;45.17;22.33;;;;;;;11.19;67.30;102663.28;5120517;28;20450;-44
2021/12/14 10:29:32;;;;;;;44.80;21.85;;;;;;;11.54;67.26;102717.16;5123310;28;20519;-47
2021/12/14 10:32:11;;;;;;;42.50;22.17;;;;;;;11.58;67.45;102716.94;5123065;28;20423;-44
2021/12/14 10:34:48;;;;;;;44.60;22.10;;;;;;;11.56;67.34;102718.88;5124650;28;20528;-45
2021/12/14 10:37:27;;;;;;;44.33;20.25;;;;;;;11.58;67.50;102714.28;5115832;28;20424;-44
2021/12/14 10:45:38;;;;;;;32.63;15.95;;;;;;;11.62;67.60;102718.44;5125616;28;20418;-43
2021/12/14 10:48:13;;;;;;;42.30;20.75;;;;;;;11.65;67.55;102716.41;5122178;28;20425;-44
2021/12/14 10:50:47;;;;;;;31.42;14.90;;;;;;;11.63;67.60;102717.47;5123981;28;20428;-43
2021/12/14 10:53:22;;;;;;;27.33;14.38;;;;;;;11.63;67.60;102709.53;5126363;28;20498;-43
2021/12/14 10:56:01;;;;;;;26.67;14.20;;;;;;;11.64;67.78;102716.50;5120280;28;21312;-44
2021/12/14 10:58:33;;;;;;;32.75;14.48;;;;;;;11.62;67.79;102713.13;5125014;28;20940;-41
2021/12/14 11:01:10;;;;;;;29.05;15.20;;;;;;;11.61;67.80;102712.25;5126638;28;20428;-45
2021/12/14 11:03:48;;;;;;;35.53;15.88;;;;;;;11.35;67.93;102674.47;5125397;28;20530;-42
2021/12/14 11:06:28;;;;;;;34.22;14.70;;;;;;;11.69;67.82;102711.72;5121926;28;20971;-44
2021/12/14 11:11:56;;;;;;;36.50;15.30;;;;;;;11.72;67.77;102716.81;5128294;28;20908;-43
2021/12/14 11:14:34;;;;;;;39.58;16.30;;;;;;;11.72;67.90;102709.69;5130648;28;20491;-46
2021/12/14 11:20:13;;;;;;;32.08;15.57;;;;;;;11.76;67.91;102711.16;5127503;28;20504;-47
2021/12/14 11:22:53;;;;;;;32.15;15.48;;;;;;;11.54;67.89;102669.53;5132678;28;20477;-47
2021/12/14 11:25:28;;;;;;;33.70;14.38;;;;;;;11.80;67.80;102711.81;5123865;28;20523;-46
2021/12/14 11:28:04;;;;;;;30.38;14.98;;;;;;;11.77;67.93;102707.56;5124206;28;20438;-44
2021/12/14 11:30:42;;;;;;;34.20;15.68;;;;;;;11.78;68.03;102708.41;5123932;28;20825;-44
2021/12/14 11:33:22;;;;;;;23.55;14.50;;;;;;;11.79;68.00;102704.81;5125609;28;20450;-44
2021/12/14 11:36:07;;;;;;;31.10;13.40;;;;;;;11.73;67.94;102699.94;5126883;28;20428;-44
2021/12/14 11:38:47;;;;;;;26.42;13.60;;;;;;;11.35;67.91;102626.84;5127647;28;20434;-47
2021/12/14 11:41:41;;;;;;;33.22;12.93;;;;;;;11.80;68.01;102701.22;5124624;28;20527;-43
2021/12/14 11:44:23;;;;;;;31.73;14.10;;;;;;;11.82;68.17;102696.63;5126660;28;20844;-43
2021/12/14 11:47:04;;;;;;;34.30;13.90;;;;;;;11.87;68.08;102696.34;5132856;28;20422;-43
2021/12/14 11:49:48;;;;;;;25.15;12.98;;;;;;;11.86;68.11;102695.50;5127342;28;20502;-45
2021/12/14 11:52:50;;;;;;;32.53;12.60;;;;;;;11.82;68.13;102682.56;5120987;28;20457;-45
2021/12/14 11:55:30;;;;;;;30.00;12.98;;;;;;;11.85;68.27;102692.97;5118810;28;20426;-46
2021/12/14 11:58:28;;;;;;;26.17;11.70;;;;;;;11.87;68.23;102691.88;5124483;28;21483;-43
2021/12/14 12:01:11;;;;;;;28.67;12.88;;;;;;;11.93;68.12;102696.72;5122399;28;20924;-42
2021/12/14 12:03:53;;;;;;;29.95;13.48;;;;;;;11.94;68.19;102694.94;5119657;28;20432;-43
2021/12/14 12:06:46;;;;;;;28.45;13.38;;;;;;;11.95;68.21;102686.88;5121534;28;20928;-44
2021/12/14 12:09:30;;;;;;;33.38;13.18;;;;;;;11.98;67.90;102678.72;5124025;28;20734;-48
2021/12/14 12:12:23;;;;;;;31.15;13.68;;;;;;;12.02;68.10;102679.31;5123124;28;20785;-43
2021/12/14 12:14:59;;;;;;;33.80;12.85;;;;;;;11.98;68.25;102673.41;5123353;28;20773;-45
2021/12/14 12:17:37;;;;;;;27.15;11.52;;;;;;;11.98;68.27;102678.72;5128771;28;20776;-47
2021/12/14 12:20:23;;;;;;;26.35;11.80;;;;;;;12.01;68.23;102680.25;5123239;28;20424;-47